»·PEaware :: JBU727 KBNA-KDFW

JBU727 :: KBNA-KDFW

FLIGHT INFORMATION

Flight Status: Arrived
Operator:
JetBlue Airways
More flights by this operator :: More flights under this callsign
Pilot: Anonymous 5323 (5323)
Aircraft: BOEING 737-200
(B732)
More flights by this aircraft type
Origin: KBNA Nashville Intl
United States
Destination: KDFW Dallas-Ft Worth Intl
United States
More flights between these airports :: More routes between these airports
Route: NASHV3 MEM J66 LIT FINGR5
File this flight plan on PilotEdge
Remarks:
Altitude:
(Current/Filed)
32,000ft
Speed:
(Current/Filed)
460kts
Departed: 07-Sep-15 07:48 AM
Arrived: 07-Sep-15 09:13 AM
Distance/Time
Traveled:
547nm/1:25
Distance/Time
To Go:
Arrived

Flight Plot

Page will automatically refresh every two minutes.


Map Options




Map Legend


Flown Route
Filed Route
Departure Airport
Arrival Airport
Navaid (VOR, NDB)
Fix

Horizontal Profiles

Position Reports

Time Latitude Longitude Heading Altitude Ground
Speed
07-Sep-15 07:45 36.121125 -86.688757 279 608ft 0kts
07-Sep-15 07:46 36.121125 -86.688757 279 608ft 0kts
07-Sep-15 07:47 36.121125 -86.688757 279 608ft 0kts
07-Sep-15 07:48 36.121125 -86.688757 279 608ft 0kts
07-Sep-15 07:49 36.121125 -86.688757 279 608ft 0kts
07-Sep-15 07:50 36.121125 -86.688757 279 608ft 0kts
07-Sep-15 07:51 36.121125 -86.688757 279 608ft 0kts
07-Sep-15 07:52 36.121125 -86.688757 279 608ft 0kts
07-Sep-15 07:53 36.121125 -86.688757 279 608ft 0kts
07-Sep-15 07:54 36.121145 -86.688810 305 608ft 2kts
07-Sep-15 07:55 36.118939 -86.687590 186 608ft 9kts
07-Sep-15 07:56 36.118594 -86.686128 15 608ft 22kts
07-Sep-15 07:57 36.154408 -86.672230 16 1081ft 213kts
07-Sep-15 07:58 36.194341 -86.723616 255 3223ft 262kts
07-Sep-15 07:59 36.141491 -86.784715 216 6144ft 273kts
07-Sep-15 08:00 36.087692 -86.850965 247 8793ft 284kts
07-Sep-15 08:01 36.056921 -86.943724 248 10816ft 310kts
07-Sep-15 08:02 36.022782 -87.050336 248 12209ft 351kts
07-Sep-15 08:03 35.987464 -87.161823 247 14479ft 355kts
07-Sep-15 08:04 35.950776 -87.277671 247 16295ft 366kts
07-Sep-15 08:05 35.913066 -87.396259 247 17990ft 375kts
07-Sep-15 08:06 35.874387 -87.517400 247 19505ft 384kts
07-Sep-15 08:07 35.834637 -87.641366 247 20833ft 395kts
07-Sep-15 08:08 35.793645 -87.768586 248 22121ft 402kts
07-Sep-15 08:09 35.752082 -87.897190 248 23381ft 407kts
07-Sep-15 08:10 35.709588 -88.028019 248 24458ft 414kts
07-Sep-15 08:11 35.666879 -88.159330 248 25446ft 421kts
07-Sep-15 08:12 35.630259 -88.271688 247 26275ft 426kts
07-Sep-15 08:13 35.585540 -88.407806 247 27217ft 433kts
07-Sep-15 08:14 35.540024 -88.545570 247 28101ft 439kts
07-Sep-15 08:15 35.493619 -88.685342 247 28923ft 444kts
07-Sep-15 08:16 35.429217 -88.812344 238 29640ft 449kts
07-Sep-15 08:17 35.371587 -88.949640 245 30352ft 454kts
07-Sep-15 08:18 35.321115 -89.092187 247 31024ft 459kts
07-Sep-15 08:19 35.274358 -89.229742 247 31620ft 464kts
07-Sep-15 08:20 35.224682 -89.375393 247 32106ft 470kts
07-Sep-15 08:21 35.173514 -89.525044 245 32154ft 479kts
07-Sep-15 08:22 35.121859 -89.674890 245 32150ft 479kts
07-Sep-15 08:23 35.070109 -89.824414 245 32154ft 476kts
07-Sep-15 08:24 35.018717 -89.972111 245 32147ft 470kts
07-Sep-15 08:25 34.968076 -90.116915 245 32144ft 466kts
07-Sep-15 08:26 34.917560 -90.262129 246 32165ft 462kts
07-Sep-15 08:27 34.901603 -90.412299 291 32164ft 468kts
07-Sep-15 08:28 34.928536 -90.554338 261 32182ft 463kts
07-Sep-15 08:29 34.909607 -90.711336 258 32150ft 471kts
07-Sep-15 08:30 34.886970 -90.869800 258 32151ft 479kts
07-Sep-15 08:31 34.863170 -91.030310 258 32145ft 484kts
07-Sep-15 08:32 34.839063 -91.191397 258 32123ft 484kts
07-Sep-15 08:33 34.814851 -91.351842 258 32119ft 482kts
07-Sep-15 08:34 34.783167 -91.509270 256 32115ft 478kts
07-Sep-15 08:35 34.757291 -91.667538 258 32117ft 475kts
07-Sep-15 08:36 34.733016 -91.824645 258 32115ft 473kts
07-Sep-15 08:37 34.708955 -91.980907 259 32109ft 471kts
07-Sep-15 08:38 34.685568 -92.134250 259 32111ft 468kts
07-Sep-15 08:39 34.652520 -92.286165 251 32108ft 463kts
07-Sep-15 08:40 34.613696 -92.433685 252 32109ft 461kts
07-Sep-15 08:41 34.575420 -92.581235 252 32109ft 461kts
07-Sep-15 08:42 34.537039 -92.728939 252 32113ft 466kts
07-Sep-15 08:43 34.497648 -92.879968 251 32123ft 472kts
07-Sep-15 08:44 34.457635 -93.032325 251 32121ft 476kts
07-Sep-15 08:45 34.416981 -93.182668 250 32121ft 478kts
07-Sep-15 08:46 34.376094 -93.335851 251 32121ft 480kts
07-Sep-15 08:47 34.335083 -93.489305 251 32119ft 480kts
07-Sep-15 08:48 34.294016 -93.642217 251 32119ft 477kts
07-Sep-15 08:49 34.252915 -93.794437 251 32126ft 474kts
07-Sep-15 08:50 34.212068 -93.944934 251 32127ft 470kts
07-Sep-15 08:51 34.171152 -94.094843 251 32110ft 468kts
07-Sep-15 08:52 34.130687 -94.242832 250 32086ft 468kts
07-Sep-15 08:53 34.071267 -94.380726 242 32080ft 464kts
07-Sep-15 08:54 34.021866 -94.525559 249 32082ft 471kts
07-Sep-15 08:55 33.978785 -94.675745 250 32083ft 476kts
07-Sep-15 08:56 33.936581 -94.827482 250 32083ft 481kts
07-Sep-15 08:57 33.893949 -94.980779 251 32088ft 482kts
07-Sep-15 08:58 33.851562 -95.132882 251 32088ft 481kts
07-Sep-15 08:59 33.809583 -95.283559 250 32086ft 472kts
07-Sep-15 09:00 33.767673 -95.432251 251 32087ft 465kts
07-Sep-15 09:01 33.726545 -95.578583 252 32087ft 460kts
07-Sep-15 09:02 33.661683 -95.707139 233 29917ft 453kts
07-Sep-15 09:03 33.587166 -95.824668 233 27844ft 436kts
07-Sep-15 09:04 33.515110 -95.937905 232 25775ft 420kts
07-Sep-15 09:05 33.446331 -96.045560 231 22631ft 401kts
07-Sep-15 09:06 33.380395 -96.147377 231 19620ft 386kts
07-Sep-15 09:07 33.319558 -96.242195 231 17837ft 374kts
07-Sep-15 09:08 33.267571 -96.322989 231 16350ft 363kts
07-Sep-15 09:09 33.236366 -96.426647 287 13001ft 349kts
07-Sep-15 09:10 33.280627 -96.516880 299 11925ft 284kts
07-Sep-15 09:11 33.289742 -96.606951 268 9504ft 278kts
07-Sep-15 09:12 33.288439 -96.697458 268 8269ft 269kts
07-Sep-15 09:13 33.251899 -96.769938 230 7902ft 259kts
07-Sep-15 09:14 33.205017 -96.836865 230 6415ft 262kts
07-Sep-15 09:15 33.160958 -96.900251 231 5978ft 225kts
07-Sep-15 09:16 33.124138 -96.953202 231 5218ft 204kts
07-Sep-15 09:17 33.094909 -97.009375 233 3731ft 187kts
07-Sep-15 09:18 33.048060 -97.028769 183 3030ft 194kts
07-Sep-15 09:19 33.002754 -97.029315 183 2319ft 144kts
07-Sep-15 09:20 32.963404 -97.029600 183 1575ft 142kts
07-Sep-15 09:21 32.924041 -97.029816 183 819ft 141kts
07-Sep-15 09:22 32.899702 -97.029962 180 615ft 21kts
07-Sep-15 09:23 32.893966 -97.032504 254 615ft 14kts
07-Sep-15 09:24 32.894725 -97.036962 336 615ft 0kts

Navigation Log

Ident Type
1. KBNA Airport
2. MEM Navaid
3. GEEYY Fix
4. LIT Navaid
5. MEEOW Fix
6. GLOVE Fix
7. HAKIN Fix
8. MONTE Fix
9. ROPSS Fix
10. FINGR Fix
11. SLANT Fix
12. KDFW Airport